Time;durP1;ratioP1;P1;durP2;ratioP2;P2;SDS_P1;SDS_P2;PMS_P1;PMS_P2;Temp;Humidity;BMP_temperature;BMP_pressure;BME280_temperature;BME280_humidity;BME280_pressure;Samples;Min_cycle;Max_cycle;Signal;HPM_P1;HPM_P2
2022/10/06 00:01:46;;;;;;;9.13;3.47;;;;;;;;;;4941383;29;20037;-84
2022/10/06 00:04:12;;;;;;;9.52;4.30;;;;;;;;;;4958453;29;20027;-76
2022/10/06 00:06:38;;;;;;;9.45;4.03;;;;;;;;;;4941429;29;20070;-83
2022/10/06 00:09:04;;;;;;;7.38;4.00;;;;;;;;;;4941656;29;20027;-84
2022/10/06 00:11:30;;;;;;;7.65;4.18;;;;;;;;;;4941173;29;20103;-84
2022/10/06 00:13:56;;;;;;;7.03;3.80;;;;;;;;;;4958896;29;20388;-83
2022/10/06 00:16:23;;;;;;;7.95;4.00;;;;;;;;;;4941024;29;20491;-84
2022/10/06 00:18:49;;;;;;;8.60;3.55;;;;;;;;;;4941361;29;20019;-84
2022/10/06 00:21:16;;;;;;;8.85;4.00;;;;;;;;;;4941354;29;20035;-77
2022/10/06 00:23:42;;;;;;;16.88;4.00;;;;;;;;;;4941371;29;20117;-76
2022/10/06 00:26:15;;;;;;;8.73;4.50;;;;;;;;;;4940793;28;20030;-75
2022/10/06 00:28:42;;;;;;;8.23;4.45;;;;;;;;;;4940536;29;20043;-83
2022/10/06 00:31:08;;;;;;;7.72;3.47;;;;;;;;;;4940880;29;20071;-77
2022/10/06 00:33:36;;;;;;;8.70;4.15;;;;;;;;;;4940901;29;20473;-83
2022/10/06 00:36:02;;;;;;;8.30;3.90;;;;;;;;;;4940888;29;20031;-84
2022/10/06 00:38:28;;;;;;;10.35;4.10;;;;;;;;;;4940902;29;20028;-84
2022/10/06 00:40:54;;;;;;;7.22;3.30;;;;;;;;;;4940678;29;20086;-78
2022/10/06 00:43:56;;;;;;;8.82;4.15;;;;;;;;;;4958291;29;20058;-83
2022/10/06 00:46:45;;;;;;;10.60;4.15;;;;;;;;;;4880225;29;20041;-76
2022/10/06 00:49:14;;;;;;;8.13;3.75;;;;;;;;;;4937352;29;20559;-75
2022/10/06 00:51:42;;;;;;;7.60;4.03;;;;;;;;;;4940502;29;20019;-75
2022/10/06 00:54:08;;;;;;;8.20;3.80;;;;;;;;;;4940425;29;20042;-77
2022/10/06 00:56:34;;;;;;;7.80;3.85;;;;;;;;;;4957638;29;20063;-76
2022/10/06 00:59:00;;;;;;;11.65;4.65;;;;;;;;;;4940531;29;20361;-82
2022/10/06 01:01:28;;;;;;;13.77;4.65;;;;;;;;;;4940816;29;20063;-84
2022/10/06 01:03:59;;;;;;;8.00;4.53;;;;;;;;;;4957454;29;20548;-82
2022/10/06 01:06:25;;;;;;;9.65;4.35;;;;;;;;;;4957651;29;20520;-83
2022/10/06 01:08:52;;;;;;;8.95;4.72;;;;;;;;;;4940225;29;20043;-82
2022/10/06 01:11:18;;;;;;;9.10;4.70;;;;;;;;;;4940213;29;20023;-74
2022/10/06 01:13:45;;;;;;;10.65;4.45;;;;;;;;;;4957489;29;20031;-82
2022/10/06 01:16:21;;;;;;;11.63;4.78;;;;;;;;;;4940106;29;20023;-75
2022/10/06 01:18:48;;;;;;;8.70;3.85;;;;;;;;;;4940417;29;20118;-76
2022/10/06 01:21:18;;;;;;;9.52;4.00;;;;;;;;;;4940227;29;20065;-83
2022/10/06 01:23:44;;;;;;;7.82;4.45;;;;;;;;;;4940014;29;20058;-81
2022/10/06 01:26:11;;;;;;;7.80;4.35;;;;;;;;;;4957164;29;20027;-83
2022/10/06 01:28:38;;;;;;;9.73;4.28;;;;;;;;;;4939786;29;20035;-83
2022/10/06 01:31:04;;;;;;;7.88;3.88;;;;;;;;;;4940002;29;20023;-83
2022/10/06 01:33:30;;;;;;;7.80;4.03;;;;;;;;;;4939668;29;20377;-78
2022/10/06 01:35:56;;;;;;;8.48;4.55;;;;;;;;;;4939621;29;20177;-75
2022/10/06 01:38:23;;;;;;;6.95;3.55;;;;;;;;;;4939545;29;20031;-83
2022/10/06 01:40:51;;;;;;;18.05;4.68;;;;;;;;;;4956823;29;20493;-83
2022/10/06 01:43:17;;;;;;;10.32;3.80;;;;;;;;;;4939759;29;20031;-83
2022/10/06 01:45:43;;;;;;;8.90;3.75;;;;;;;;;;4939322;29;20047;-82
2022/10/06 01:48:09;;;;;;;8.63;3.75;;;;;;;;;;4939298;29;20058;-75
2022/10/06 01:50:35;;;;;;;10.95;4.30;;;;;;;;;;4939310;29;20023;-81
2022/10/06 01:53:01;;;;;;;8.73;4.07;;;;;;;;;;4956764;29;20027;-82
2022/10/06 01:55:27;;;;;;;8.35;4.40;;;;;;;;;;4939250;29;20031;-81
2022/10/06 01:57:53;;;;;;;9.25;4.13;;;;;;;;;;4939454;29;20034;-76
2022/10/06 02:00:19;;;;;;;8.57;4.13;;;;;;;;;;4938940;29;20079;-75
2022/10/06 02:02:45;;;;;;;14.07;4.70;;;;;;;;;;4939157;29;20053;-75
2022/10/06 02:05:13;;;;;;;13.00;4.60;;;;;;;;;;4939130;29;20024;-75
2022/10/06 02:07:39;;;;;;;11.90;5.68;;;;;;;;;;4938914;29;20401;-76
2022/10/06 02:10:06;;;;;;;8.57;4.53;;;;;;;;;;4939461;29;20019;-75
2022/10/06 02:12:33;;;;;;;11.43;4.22;;;;;;;;;;4939236;29;20032;-83
2022/10/06 02:14:59;;;;;;;14.00;5.68;;;;;;;;;;4939225;29;20113;-81
2022/10/06 02:17:26;;;;;;;9.48;4.30;;;;;;;;;;4939113;29;20373;-83
2022/10/06 02:19:52;;;;;;;7.32;4.18;;;;;;;;;;4939172;29;20027;-80
2022/10/06 02:22:18;;;;;;;8.32;4.60;;;;;;;;;;4939025;29;20396;-78
2022/10/06 02:24:44;;;;;;;9.02;4.60;;;;;;;;;;4956243;29;20132;-83
2022/10/06 02:27:10;;;;;;;7.75;3.75;;;;;;;;;;4939043;29;20035;-83
2022/10/06 02:29:36;;;;;;;9.95;4.57;;;;;;;;;;4956083;29;20027;-83
2022/10/06 02:32:02;;;;;;;9.68;4.88;;;;;;;;;;4956018;29;20031;-83
2022/10/06 02:34:28;;;;;;;7.88;3.97;;;;;;;;;;4939149;29;20027;-76
2022/10/06 02:36:55;;;;;;;7.85;4.45;;;;;;;;;;4938591;29;20058;-76
2022/10/06 02:39:21;;;;;;;8.63;3.45;;;;;;;;;;4938866;29;20089;-78
2022/10/06 02:41:47;;;;;;;9.38;4.22;;;;;;;;;;4938520;29;20020;-77
2022/10/06 02:44:13;;;;;;;7.20;3.95;;;;;;;;;;4938329;29;20039;-76
2022/10/06 02:46:40;;;;;;;16.13;4.10;;;;;;;;;;4938891;29;20396;-83
2022/10/06 02:49:06;;;;;;;8.88;3.72;;;;;;;;;;4955826;28;20038;-77
2022/10/06 02:51:33;;;;;;;7.22;3.78;;;;;;;;;;4938114;29;20027;-82
2022/10/06 02:53:59;;;;;;;9.63;4.28;;;;;;;;;;4938283;29;20034;-84
2022/10/06 02:56:25;;;;;;;9.85;3.60;;;;;;;;;;4938470;29;20038;-81
2022/10/06 02:58:52;;;;;;;8.40;4.07;;;;;;;;;;4938469;29;20394;-81
2022/10/06 03:01:20;;;;;;;8.00;3.88;;;;;;;;;;4938295;29;20027;-77
2022/10/06 03:03:46;;;;;;;5.45;2.75;;;;;;;;;;4955367;29;20059;-83
2022/10/06 03:06:23;;;;;;;8.55;4.38;;;;;;;;;;4938314;29;20831;-76
2022/10/06 03:09:03;;;;;;;7.32;3.45;;;;;;;;;;4938365;29;20043;-83
2022/10/06 03:11:30;;;;;;;7.65;3.83;;;;;;;;;;4938213;29;20544;-84
2022/10/06 03:13:56;;;;;;;7.90;3.53;;;;;;;;;;4938255;29;20030;-84
2022/10/06 03:16:23;;;;;;;8.15;3.25;;;;;;;;;;4938253;29;20026;-83
2022/10/06 03:18:50;;;;;;;7.78;3.85;;;;;;;;;;4938285;29;20445;-84
2022/10/06 03:21:17;;;;;;;9.88;4.10;;;;;;;;;;4938137;29;20395;-82
2022/10/06 03:23:44;;;;;;;10.13;4.20;;;;;;;;;;4937945;29;20033;-76
2022/10/06 03:26:10;;;;;;;10.13;3.88;;;;;;;;;;4938083;29;20131;-77
2022/10/06 03:28:39;;;;;;;8.18;3.47;;;;;;;;;;4938029;29;20039;-84
2022/10/06 03:31:05;;;;;;;9.93;4.13;;;;;;;;;;4938116;29;20030;-83
2022/10/06 03:33:32;;;;;;;13.00;4.57;;;;;;;;;;4938182;29;20078;-83
2022/10/06 03:36:06;;;;;;;8.63;4.07;;;;;;;;;;4938144;29;20037;-84
2022/10/06 03:38:32;;;;;;;12.60;4.57;;;;;;;;;;4937990;29;20035;-83
2022/10/06 03:41:25;;;;;;;8.48;4.00;;;;;;;;;;4937972;29;20027;-77
2022/10/06 03:43:53;;;;;;;7.53;3.47;;;;;;;;;;4935393;29;20489;-77
2022/10/06 03:46:20;;;;;;;7.15;4.13;;;;;;;;;;4937864;29;20103;-83
2022/10/06 03:48:47;;;;;;;6.93;3.50;;;;;;;;;;4937912;29;20049;-83
2022/10/06 03:51:17;;;;;;;9.07;3.92;;;;;;;;;;4938128;29;20504;-76
2022/10/06 03:53:44;;;;;;;8.25;4.72;;;;;;;;;;4937862;29;20063;-76
2022/10/06 03:56:10;;;;;;;10.32;3.90;;;;;;;;;;4937684;29;20035;-76
2022/10/06 03:58:38;;;;;;;8.25;3.97;;;;;;;;;;4937626;29;20023;-76
2022/10/06 04:01:09;;;;;;;9.23;3.53;;;;;;;;;;4938527;29;20508;-82
2022/10/06 04:03:35;;;;;;;7.82;3.58;;;;;;;;;;4941460;29;20050;-77
2022/10/06 04:06:02;;;;;;;9.18;3.25;;;;;;;;;;4941060;29;20034;-83
2022/10/06 04:08:29;;;;;;;8.50;3.72;;;;;;;;;;4941058;29;20118;-77
2022/10/06 04:10:55;;;;;;;7.78;3.70;;;;;;;;;;4941040;29;20028;-77
2022/10/06 04:13:22;;;;;;;10.23;4.20;;;;;;;;;;4958068;29;20472;-83
2022/10/06 04:15:48;;;;;;;9.63;3.70;;;;;;;;;;4941092;29;20031;-82
2022/10/06 04:18:15;;;;;;;9.45;4.00;;;;;;;;;;4940974;29;20500;-77
2022/10/06 04:20:41;;;;;;;7.28;4.03;;;;;;;;;;4940922;29;20027;-77
2022/10/06 04:23:07;;;;;;;10.32;4.90;;;;;;;;;;4941150;29;20118;-83
2022/10/06 04:25:34;;;;;;;7.13;3.83;;;;;;;;;;4941005;29;20027;-76
2022/10/06 04:28:00;;;;;;;11.60;4.43;;;;;;;;;;4940257;29;20130;-77
2022/10/06 04:30:26;;;;;;;7.75;4.10;;;;;;;;;;4957364;29;20107;-83
2022/10/06 04:32:53;;;;;;;10.23;4.43;;;;;;;;;;4940560;29;20027;-83
2022/10/06 04:35:19;;;;;;;8.90;4.90;;;;;;;;;;4940571;29;20050;-77
2022/10/06 04:37:45;;;;;;;15.35;6.13;;;;;;;;;;4940446;29;20065;-80
2022/10/06 04:40:12;;;;;;;12.52;5.95;;;;;;;;;;4940165;29;20024;-81
2022/10/06 04:42:39;;;;;;;11.20;5.82;;;;;;;;;;4957077;29;20385;-76
2022/10/06 04:45:05;;;;;;;10.65;5.90;;;;;;;;;;4957155;29;20047;-79
2022/10/06 04:47:31;;;;;;;11.52;6.05;;;;;;;;;;4940149;29;20027;-76
2022/10/06 04:49:58;;;;;;;12.85;4.90;;;;;;;;;;4941242;28;20499;-77
2022/10/06 04:52:24;;;;;;;11.07;5.25;;;;;;;;;;4943143;29;20038;-77
2022/10/06 04:54:50;;;;;;;11.18;5.80;;;;;;;;;;4956951;29;20041;-77
2022/10/06 04:57:16;;;;;;;11.88;4.88;;;;;;;;;;4956767;29;20028;-76
2022/10/06 05:02:28;;;;;;;9.38;4.65;;;;;;;;;;4957587;29;20461;-75
2022/10/06 05:04:56;;;;;;;8.50;3.95;;;;;;;;;;4957061;29;20027;-75
2022/10/06 05:07:22;;;;;;;11.07;4.22;;;;;;;;;;4957086;29;20440;-76
2022/10/06 05:09:48;;;;;;;10.65;5.05;;;;;;;;;;4939796;29;20027;-75
2022/10/06 05:12:14;;;;;;;12.23;5.15;;;;;;;;;;4956572;28;20023;-75
2022/10/06 05:14:41;;;;;;;7.47;4.00;;;;;;;;;;4939368;29;20122;-75
2022/10/06 05:17:07;;;;;;;8.85;4.65;;;;;;;;;;4939688;29;20027;-76
2022/10/06 05:19:33;;;;;;;8.85;4.85;;;;;;;;;;4939652;29;20035;-75
2022/10/06 05:21:59;;;;;;;8.77;4.47;;;;;;;;;;4939440;29;20037;-76
2022/10/06 05:24:25;;;;;;;10.02;3.92;;;;;;;;;;4939496;29;20027;-76
2022/10/06 05:26:52;;;;;;;8.30;3.88;;;;;;;;;;4939537;29;20100;-75
2022/10/06 05:29:18;;;;;;;15.95;3.85;;;;;;;;;;4938877;29;20058;-75
2022/10/06 05:31:45;;;;;;;8.77;4.35;;;;;;;;;;4939325;29;20086;-76
2022/10/06 05:34:11;;;;;;;9.55;4.70;;;;;;;;;;4939007;29;20118;-75
2022/10/06 05:36:37;;;;;;;17.58;5.18;;;;;;;;;;4938851;29;20082;-76
2022/10/06 05:39:04;;;;;;;9.30;5.07;;;;;;;;;;4939098;29;20031;-77
2022/10/06 05:41:31;;;;;;;16.48;4.93;;;;;;;;;;4939232;29;20038;-76
2022/10/06 05:43:58;;;;;;;9.82;4.60;;;;;;;;;;4938991;29;20034;-77
2022/10/06 05:46:28;;;;;;;8.88;4.65;;;;;;;;;;4939200;29;20504;-77
2022/10/06 05:49:05;;;;;;;13.63;4.55;;;;;;;;;;4956520;29;20043;-77
2022/10/06 05:51:33;;;;;;;11.65;4.85;;;;;;;;;;4938707;29;20023;-77
2022/10/06 05:53:59;;;;;;;10.30;4.80;;;;;;;;;;4939075;29;20067;-76
2022/10/06 05:56:25;;;;;;;9.75;4.82;;;;;;;;;;4956139;29;20029;-78
2022/10/06 05:58:52;;;;;;;11.32;4.60;;;;;;;;;;4938956;29;20023;-74
2022/10/06 06:01:20;;;;;;;9.82;4.70;;;;;;;;;;4938880;29;20026;-77
2022/10/06 06:03:48;;;;;;;13.93;5.03;;;;;;;;;;4938808;29;20465;-77
2022/10/06 06:06:15;;;;;;;9.13;4.63;;;;;;;;;;4938530;29;20027;-77
2022/10/06 06:08:41;;;;;;;10.82;4.78;;;;;;;;;;4955910;29;20039;-76
2022/10/06 06:11:08;;;;;;;13.75;5.65;;;;;;;;;;4938669;29;20031;-77
2022/10/06 06:13:35;;;;;;;12.18;5.47;;;;;;;;;;4938665;29;20035;-77
2022/10/06 06:16:03;;;;;;;17.77;4.93;;;;;;;;;;4938363;29;20511;-77
2022/10/06 06:18:30;;;;;;;12.73;5.40;;;;;;;;;;4938585;29;20030;-78
2022/10/06 06:21:07;;;;;;;20.60;5.40;;;;;;;;;;4938400;29;20032;-75
2022/10/06 06:23:41;;;;;;;13.32;6.25;;;;;;;;;;4938542;29;20027;-80
2022/10/06 06:26:08;;;;;;;15.52;6.60;;;;;;;;;;4937758;29;20031;-83
2022/10/06 06:28:37;;;;;;;15.50;6.50;;;;;;;;;;4939312;29;20035;-80
2022/10/06 06:31:09;;;;;;;14.70;6.30;;;;;;;;;;4939045;29;20026;-85
2022/10/06 06:33:36;;;;;;;18.08;6.72;;;;;;;;;;4939114;29;20042;-86
2022/10/06 06:36:12;;;;;;;16.80;6.55;;;;;;;;;;4938730;29;20030;-74
2022/10/06 06:38:38;;;;;;;10.95;6.00;;;;;;;;;;4962496;28;20026;-80
2022/10/06 06:41:05;;;;;;;12.98;6.38;;;;;;;;;;4957093;28;20023;-79
2022/10/06 06:43:31;;;;;;;11.35;6.25;;;;;;;;;;4973852;28;20038;-82
2022/10/06 06:46:03;;;;;;;15.32;8.05;;;;;;;;;;4956556;28;20523;-79
2022/10/06 06:48:29;;;;;;;12.95;6.90;;;;;;;;;;4957330;28;20042;-80
2022/10/06 06:51:02;;;;;;;16.92;7.30;;;;;;;;;;4958945;28;20027;-86
2022/10/06 06:53:34;;;;;;;19.10;8.18;;;;;;;;;;4958514;28;20037;-88
2022/10/06 06:56:00;;;;;;;16.48;7.65;;;;;;;;;;4976035;28;20030;-86
2022/10/06 06:58:26;;;;;;;12.35;7.22;;;;;;;;;;4958808;28;20117;-83
2022/10/06 07:00:53;;;;;;;15.40;8.05;;;;;;;;;;4958921;28;20106;-85
2022/10/06 07:03:20;;;;;;;18.90;7.30;;;;;;;;;;4958120;28;20141;-82
2022/10/06 07:05:48;;;;;;;19.48;8.13;;;;;;;;;;4975328;28;20030;-91
2022/10/06 07:08:16;;;;;;;15.20;7.85;;;;;;;;;;4957160;28;20385;-81
2022/10/06 07:10:43;;;;;;;14.55;7.35;;;;;;;;;;4957772;28;20431;-88
2022/10/06 07:13:14;;;;;;;25.52;8.05;;;;;;;;;;4974764;28;20117;-81
2022/10/06 07:26:58;;;;;;;10.32;5.32;;;;;;;;;;4945329;28;20448;-82
2022/10/06 07:29:24;;;;;;;12.93;5.80;;;;;;;;;;4937371;29;20039;-80
2022/10/06 07:31:50;;;;;;;10.93;5.43;;;;;;;;;;4935828;29;20057;-81
2022/10/06 07:34:16;;;;;;;12.07;4.65;;;;;;;;;;4937999;29;20110;-84
2022/10/06 07:36:43;;;;;;;6.43;3.17;;;;;;;;;;4939834;29;20128;-84
2022/10/06 07:39:09;;;;;;;6.32;3.38;;;;;;;;;;4941737;29;20063;-83
2022/10/06 07:41:35;;;;;;;5.70;2.70;;;;;;;;;;4966583;28;20022;-82
2022/10/06 07:44:04;;;;;;;5.78;2.88;;;;;;;;;;4951936;28;20054;-83
2022/10/06 07:46:32;;;;;;;4.90;2.72;;;;;;;;;;4963823;28;20038;-84
2022/10/06 07:48:58;;;;;;;6.80;2.60;;;;;;;;;;4969690;28;20177;-85
2022/10/06 07:51:26;;;;;;;7.85;2.53;;;;;;;;;;4977862;28;20026;-77
2022/10/06 07:53:52;;;;;;;3.78;2.55;;;;;;;;;;4960366;28;20125;-79
2022/10/06 07:56:19;;;;;;;7.22;2.80;;;;;;;;;;4960696;28;20492;-78
2022/10/06 07:58:46;;;;;;;5.38;2.33;;;;;;;;;;4960297;28;20029;-79
2022/10/06 08:01:13;;;;;;;5.63;2.90;;;;;;;;;;4977649;28;20034;-77
2022/10/06 08:03:40;;;;;;;4.90;2.40;;;;;;;;;;4977652;28;20109;-80
2022/10/06 08:06:13;;;;;;;4.75;2.75;;;;;;;;;;4977873;28;20031;-77
2022/10/06 08:08:39;;;;;;;6.15;3.03;;;;;;;;;;4960126;28;20097;-78
2022/10/06 08:11:06;;;;;;;7.43;2.90;;;;;;;;;;4977473;28;20089;-78
2022/10/06 08:13:34;;;;;;;5.07;2.42;;;;;;;;;;4960079;28;20030;-84
2022/10/06 08:16:07;;;;;;;6.18;3.20;;;;;;;;;;4960168;28;20050;-78
2022/10/06 08:18:34;;;;;;;4.95;2.67;;;;;;;;;;4959794;28;20031;-79
2022/10/06 08:21:00;;;;;;;7.22;2.70;;;;;;;;;;4960201;28;20439;-86
2022/10/06 08:23:26;;;;;;;6.45;3.20;;;;;;;;;;4961035;28;20078;-86
2022/10/06 08:25:55;;;;;;;5.53;2.90;;;;;;;;;;4961775;28;20043;-81
2022/10/06 08:28:25;;;;;;;4.57;2.58;;;;;;;;;;4962167;28;20031;-91
2022/10/06 08:30:52;;;;;;;5.82;2.95;;;;;;;;;;4961673;28;20023;-79
2022/10/06 08:33:22;;;;;;;5.72;3.05;;;;;;;;;;4962857;28;20030;-90
2022/10/06 08:35:51;;;;;;;5.80;2.95;;;;;;;;;;4963102;28;20101;-87
2022/10/06 08:38:20;;;;;;;7.72;3.00;;;;;;;;;;4961943;28;20038;-90
2022/10/06 08:40:46;;;;;;;5.82;2.95;;;;;;;;;;4961614;28;20034;-79
2022/10/06 08:43:22;;;;;;;5.78;3.15;;;;;;;;;;4961137;28;20022;-89
2022/10/06 08:45:54;;;;;;;6.32;3.03;;;;;;;;;;4960262;28;20055;-88
2022/10/06 08:48:27;;;;;;;7.35;2.90;;;;;;;;;;4977684;28;20031;-79
2022/10/06 08:50:53;;;;;;;3.95;2.50;;;;;;;;;;4970601;28;20043;-88
2022/10/06 08:53:49;;;;;;;5.00;3.22;;;;;;;;;;4961184;28;20027;-88
2022/10/06 08:56:34;;;;;;;6.78;3.17;;;;;;;;;;4948829;28;20035;-89
2022/10/06 08:59:03;;;;;;;6.10;2.92;;;;;;;;;;4960807;28;20031;-92
2022/10/06 09:01:40;;;;;;;6.15;3.00;;;;;;;;;;4960877;28;20030;-91
2022/10/06 09:04:09;;;;;;;6.95;3.35;;;;;;;;;;4960330;28;20034;-81
2022/10/06 09:06:42;;;;;;;7.38;3.10;;;;;;;;;;4960566;28;20480;-92
2022/10/06 09:09:27;;;;;;;5.35;2.95;;;;;;;;;;4960254;28;20027;-79
2022/10/06 09:12:02;;;;;;;5.22;3.00;;;;;;;;;;4977236;28;20031;-84
2022/10/06 09:14:43;;;;;;;6.40;3.05;;;;;;;;;;4959585;28;20023;-91
2022/10/06 09:17:12;;;;;;;7.78;3.28;;;;;;;;;;4959538;28;20026;-85
2022/10/06 09:19:42;;;;;;;4.25;2.47;;;;;;;;;;4959261;28;20042;-86
2022/10/06 09:22:14;;;;;;;7.97;3.45;;;;;;;;;;4959028;28;20034;-84
2022/10/06 09:24:41;;;;;;;7.68;3.50;;;;;;;;;;4958993;28;20030;-86
2022/10/06 09:27:35;;;;;;;6.10;3.15;;;;;;;;;;4959102;28;20411;-85
2022/10/06 09:30:03;;;;;;;5.47;3.53;;;;;;;;;;4970307;28;20043;-83
2022/10/06 09:32:30;;;;;;;4.78;3.17;;;;;;;;;;4958760;28;20047;-84
2022/10/06 09:35:01;;;;;;;4.97;3.25;;;;;;;;;;4958420;28;20063;-83
2022/10/06 09:37:28;;;;;;;6.03;3.05;;;;;;;;;;4976093;28;21079;-82
2022/10/06 09:39:54;;;;;;;5.78;3.10;;;;;;;;;;4958647;28;20546;-83
2022/10/06 09:42:34;;;;;;;4.88;3.13;;;;;;;;;;4958500;28;20056;-90
2022/10/06 09:45:02;;;;;;;7.10;3.45;;;;;;;;;;4960662;28;20484;-88
2022/10/06 09:47:47;;;;;;;5.28;3.30;;;;;;;;;;4960734;28;20045;-89
2022/10/06 09:50:28;;;;;;;6.10;3.40;;;;;;;;;;4960716;28;20038;-92
2022/10/06 09:53:05;;;;;;;5.75;3.05;;;;;;;;;;4960589;28;20038;-92
2022/10/06 09:55:34;;;;;;;6.35;2.90;;;;;;;;;;4960736;28;20027;-92
2022/10/06 09:58:16;;;;;;;4.93;2.78;;;;;;;;;;4960458;28;20039;-92
2022/10/06 10:00:53;;;;;;;8.27;3.47;;;;;;;;;;4960588;28;20022;-93
2022/10/06 10:03:20;;;;;;;8.65;3.80;;;;;;;;;;4960503;28;20487;-92
2022/10/06 10:05:55;;;;;;;17.10;10.65;;;;;;;;;;4960224;28;20407;-93
2022/10/06 10:08:30;;;;;;;7.53;4.28;;;;;;;;;;4960004;28;20045;-86
2022/10/06 10:12:23;;;;;;;10.15;3.42;;;;;;;;;;4959303;28;20031;-89
2022/10/06 10:13:56;;;;;;;4.72;3.08;;;;;;;;;;4975692;28;20031;-88
2022/10/06 10:16:27;;;;;;;6.53;3.55;;;;;;;;;;4959423;28;20157;-78
2022/10/06 10:18:53;;;;;;;6.18;3.08;;;;;;;;;;4959993;28;20038;-89
2022/10/06 10:21:36;;;;;;;4.63;2.83;;;;;;;;;;4956439;28;20027;-92
2022/10/06 10:24:09;;;;;;;10.50;4.82;;;;;;;;;;4975918;28;20425;-91
2022/10/06 10:26:43;;;;;;;25.25;11.43;;;;;;;;;;4959798;28;20023;-90
2022/10/06 10:29:23;;;;;;;12.05;5.85;;;;;;;;;;4959487;28;20026;-78
2022/10/06 10:32:10;;;;;;;4.78;2.85;;;;;;;;;;4959983;28;20034;-87
2022/10/06 10:34:37;;;;;;;8.73;4.95;;;;;;;;;;4959551;28;20507;-91
2022/10/06 10:37:15;;;;;;;5.68;3.35;;;;;;;;;;4959809;28;20026;-90
2022/10/06 10:39:50;;;;;;;6.45;3.20;;;;;;;;;;4970032;28;20041;-92
2022/10/06 10:42:44;;;;;;;6.15;2.78;;;;;;;;;;4965321;28;20026;-93
2022/10/06 10:45:36;;;;;;;7.55;3.13;;;;;;;;;;4951373;28;20047;-88
2022/10/06 10:48:11;;;;;;;4.85;2.80;;;;;;;;;;4959899;28;20400;-91
2022/10/06 10:50:37;;;;;;;4.78;2.40;;;;;;;;;;4959356;28;20548;-89
2022/10/06 10:53:22;;;;;;;5.93;2.60;;;;;;;;;;4959778;28;20026;-92
2022/10/06 10:55:58;;;;;;;5.22;3.08;;;;;;;;;;4959975;28;20490;-92
2022/10/06 10:58:37;;;;;;;5.78;2.70;;;;;;;;;;4959052;28;20411;-91
2022/10/06 11:01:26;;;;;;;4.68;2.72;;;;;;;;;;4958161;28;20121;-79
2022/10/06 11:03:55;;;;;;;7.90;2.80;;;;;;;;;;4931340;28;20488;-82
2022/10/06 11:06:28;;;;;;;3.60;2.50;;;;;;;;;;4975280;28;20027;-82
2022/10/06 11:09:06;;;;;;;8.73;2.97;;;;;;;;;;4947092;29;20137;-83
2022/10/06 11:11:33;;;;;;;5.70;2.58;;;;;;;;;;4942508;29;20044;-83
2022/10/06 11:14:02;;;;;;;6.30;2.67;;;;;;;;;;4938147;29;20118;-81
2022/10/06 11:16:43;;;;;;;12.90;2.72;;;;;;;;;;4938128;29;20031;-90
2022/10/06 11:19:28;;;;;;;5.80;2.90;;;;;;;;;;4939433;29;20023;-81
2022/10/06 11:22:02;;;;;;;4.07;2.38;;;;;;;;;;4939244;29;20480;-89
2022/10/06 11:24:34;;;;;;;5.22;2.22;;;;;;;;;;4939788;29;20034;-92
2022/10/06 11:27:15;;;;;;;5.57;2.20;;;;;;;;;;4940187;29;20031;-90
2022/10/06 11:30:03;;;;;;;7.18;2.50;;;;;;;;;;4941066;29;20039;-93
2022/10/06 11:32:54;;;;;;;4.88;2.45;;;;;;;;;;4940755;28;20027;-93
2022/10/06 11:35:25;;;;;;;6.63;2.60;;;;;;;;;;4941577;29;20031;-94
2022/10/06 11:37:54;;;;;;;6.28;3.30;;;;;;;;;;4938854;29;20174;-91
2022/10/06 11:40:27;;;;;;;4.65;2.13;;;;;;;;;;4940544;29;20031;-93
2022/10/06 11:43:34;;;;;;;11.88;3.50;;;;;;;;;;4940558;28;20024;-92
2022/10/06 11:46:00;;;;;;;5.72;2.47;;;;;;;;;;4877301;29;20057;-87
2022/10/06 11:48:30;;;;;;;6.88;2.38;;;;;;;;;;4927190;29;20039;-90
2022/10/06 11:51:16;;;;;;;3.70;1.90;;;;;;;;;;4938500;29;20032;-79
2022/10/06 11:53:46;;;;;;;4.28;2.45;;;;;;;;;;4939376;29;20126;-92
2022/10/06 11:56:20;;;;;;;6.32;2.25;;;;;;;;;;4940314;29;20027;-81
2022/10/06 11:58:55;;;;;;;4.82;2.60;;;;;;;;;;4957049;29;20031;-92
2022/10/06 12:01:33;;;;;;;5.40;2.67;;;;;;;;;;4939739;29;20023;-78
2022/10/06 12:04:04;;;;;;;6.00;2.50;;;;;;;;;;4938359;29;20027;-78
2022/10/06 12:06:43;;;;;;;5.53;2.38;;;;;;;;;;4955573;29;20098;-82
2022/10/06 12:09:25;;;;;;;4.57;2.35;;;;;;;;;;4937197;29;20027;-81
2022/10/06 12:11:52;;;;;;;5.80;2.55;;;;;;;;;;4937530;29;20091;-82
2022/10/06 12:14:40;;;;;;;4.20;2.30;;;;;;;;;;4936500;29;20069;-81
2022/10/06 12:17:17;;;;;;;5.15;2.70;;;;;;;;;;4937037;29;20082;-81
2022/10/06 12:19:49;;;;;;;4.35;2.20;;;;;;;;;;4937373;29;20082;-76
2022/10/06 12:22:25;;;;;;;3.67;1.80;;;;;;;;;;4937458;29;20035;-82
2022/10/06 12:25:04;;;;;;;6.50;1.67;;;;;;;;;;4940713;29;20125;-79
2022/10/06 12:27:33;;;;;;;3.13;1.80;;;;;;;;;;4941861;29;20118;-86
2022/10/06 12:30:17;;;;;;;5.45;1.85;;;;;;;;;;4941430;29;20015;-85
2022/10/06 12:32:49;;;;;;;3.30;1.60;;;;;;;;;;4941676;29;20503;-88
2022/10/06 12:35:18;;;;;;;4.28;2.08;;;;;;;;;;4958445;29;20027;-89
2022/10/06 12:37:45;;;;;;;3.22;1.60;;;;;;;;;;4941833;29;20057;-88
2022/10/06 12:40:30;;;;;;;3.58;1.25;;;;;;;;;;4942663;29;20436;-89
2022/10/06 12:43:26;;;;;;;6.03;1.30;;;;;;;;;;4943297;29;20465;-89
2022/10/06 12:45:55;;;;;;;4.38;1.20;;;;;;;;;;4894835;29;20081;-90
2022/10/06 12:48:36;;;;;;;5.22;1.10;;;;;;;;;;4944423;29;20031;-89
2022/10/06 12:51:11;;;;;;;3.78;1.13;;;;;;;;;;4944598;29;20130;-74
2022/10/06 12:53:43;;;;;;;3.78;1.38;;;;;;;;;;4965311;28;20097;-84
2022/10/06 12:56:19;;;;;;;4.77;1.57;;;;;;;;;;4960640;28;20077;-77
2022/10/06 12:58:45;;;;;;;4.22;1.60;;;;;;;;;;4959605;28;20043;-84
2022/10/06 13:01:12;;;;;;;5.28;1.33;;;;;;;;;;4942335;28;20112;-79
2022/10/06 13:03:40;;;;;;;8.13;1.40;;;;;;;;;;4958712;28;20106;-78
2022/10/06 13:06:07;;;;;;;2.60;1.13;;;;;;;;;;4960126;28;20038;-78
2022/10/06 13:08:34;;;;;;;2.90;1.50;;;;;;;;;;4942469;28;20488;-78
2022/10/06 13:11:13;;;;;;;4.30;1.23;;;;;;;;;;4959740;28;20034;-78
2022/10/06 13:13:45;;;;;;;2.03;0.90;;;;;;;;;;4939761;29;20037;-78
2022/10/06 13:16:13;;;;;;;2.45;1.10;;;;;;;;;;4939665;29;20023;-80
2022/10/06 13:18:39;;;;;;;4.00;1.58;;;;;;;;;;4956803;29;20031;-78
2022/10/06 13:21:10;;;;;;;2.53;1.08;;;;;;;;;;4957239;29;20030;-79
2022/10/06 13:23:37;;;;;;;3.95;1.13;;;;;;;;;;4956623;29;20105;-79
2022/10/06 13:26:07;;;;;;;2.33;1.20;;;;;;;;;;4957000;29;20023;-78
2022/10/06 13:28:43;;;;;;;2.70;1.13;;;;;;;;;;4939538;29;20130;-79
2022/10/06 13:31:23;;;;;;;3.70;1.20;;;;;;;;;;4956544;29;20387;-79
2022/10/06 13:33:51;;;;;;;2.08;1.17;;;;;;;;;;4939215;29;20453;-79
2022/10/06 13:36:18;;;;;;;5.00;1.20;;;;;;;;;;4956617;29;20031;-80
2022/10/06 13:38:45;;;;;;;2.45;1.20;;;;;;;;;;4939355;29;20069;-78
2022/10/06 13:41:28;;;;;;;4.13;1.55;;;;;;;;;;4956349;29;20477;-79
2022/10/06 13:43:58;;;;;;;1.70;1.10;;;;;;;;;;4939298;29;20432;-79
2022/10/06 13:46:26;;;;;;;3.50;1.33;;;;;;;;;;4956294;29;20059;-79
2022/10/06 13:48:54;;;;;;;2.80;1.55;;;;;;;;;;4956469;29;20065;-80
2022/10/06 13:51:22;;;;;;;2.72;1.23;;;;;;;;;;4939002;29;20118;-79
2022/10/06 13:53:48;;;;;;;2.83;1.67;;;;;;;;;;4956345;29;20034;-80
2022/10/06 13:56:40;;;;;;;2.88;1.45;;;;;;;;;;4956301;29;20126;-82
2022/10/06 13:59:33;;;;;;;2.90;1.60;;;;;;;;;;4952849;29;20077;-80
2022/10/06 14:02:17;;;;;;;5.28;1.60;;;;;;;;;;4936458;29;20118;-81
2022/10/06 14:04:43;;;;;;;4.97;1.88;;;;;;;;;;4938943;29;20118;-79
2022/10/06 14:07:13;;;;;;;3.92;2.08;;;;;;;;;;4938571;29;20028;-80
2022/10/06 14:09:40;;;;;;;5.13;1.70;;;;;;;;;;4938775;29;20499;-79
2022/10/06 14:12:13;;;;;;;4.22;1.88;;;;;;;;;;4938776;29;20031;-80
2022/10/06 14:14:39;;;;;;;5.13;1.40;;;;;;;;;;4938510;29;20041;-80
2022/10/06 14:17:05;;;;;;;3.40;1.60;;;;;;;;;;4955970;29;20023;-80
2022/10/06 14:19:40;;;;;;;5.32;1.73;;;;;;;;;;4938824;29;20042;-83
2022/10/06 14:22:26;;;;;;;4.72;2.00;;;;;;;;;;4938798;29;20023;-86
2022/10/06 14:24:52;;;;;;;3.92;1.92;;;;;;;;;;4938907;29;20027;-82
2022/10/06 14:27:18;;;;;;;3.80;1.77;;;;;;;;;;4939156;29;20082;-84
2022/10/06 14:29:45;;;;;;;4.82;2.25;;;;;;;;;;4938911;29;20030;-81
2022/10/06 14:32:15;;;;;;;4.40;1.90;;;;;;;;;;4938974;29;20032;-81
2022/10/06 14:34:41;;;;;;;5.93;1.90;;;;;;;;;;4938866;29;20023;-80
2022/10/06 14:37:16;;;;;;;3.25;1.80;;;;;;;;;;4939000;29;20492;-78
2022/10/06 14:39:43;;;;;;;5.22;1.60;;;;;;;;;;4938992;29;20031;-85
2022/10/06 14:42:10;;;;;;;3.30;1.70;;;;;;;;;;4938650;29;20032;-85
2022/10/06 14:44:37;;;;;;;2.25;1.50;;;;;;;;;;4938352;28;20481;-86
2022/10/06 14:47:05;;;;;;;4.90;2.00;;;;;;;;;;4937851;29;20031;-81
2022/10/06 14:49:31;;;;;;;3.58;1.50;;;;;;;;;;4938809;29;20091;-84
2022/10/06 14:51:57;;;;;;;5.43;2.10;;;;;;;;;;4938989;29;20027;-81
2022/10/06 14:54:24;;;;;;;2.95;1.85;;;;;;;;;;4938912;29;20492;-87
2022/10/06 14:56:52;;;;;;;3.20;1.58;;;;;;;;;;4938866;29;20035;-80
2022/10/06 14:59:18;;;;;;;3.47;1.80;;;;;;;;;;4938909;29;20102;-80
2022/10/06 15:01:45;;;;;;;3.20;1.70;;;;;;;;;;4938774;29;20425;-86
2022/10/06 15:04:23;;;;;;;3.00;1.50;;;;;;;;;;4938168;29;20037;-85
2022/10/06 15:09:34;;;;;;;5.35;2.20;;;;;;;;;;4955927;29;20503;-85
2022/10/06 15:12:00;;;;;;;6.85;2.58;;;;;;;;;;4938358;29;20028;-84
2022/10/06 15:14:28;;;;;;;4.28;1.98;;;;;;;;;;4938397;29;20073;-82
2022/10/06 15:16:54;;;;;;;3.88;1.80;;;;;;;;;;4938697;29;20393;-80